sensor_id;sensor_type;location;lat;lon;timestamp;P1;durP1;ratioP1;P2;durP2;ratioP2
53411;SDS011;39307;52.870;13.660;2023-11-21T00:01:00;34.78;;;17.48;;
53411;SDS011;39307;52.870;13.660;2023-11-21T00:03:26;32.70;;;17.10;;
53411;SDS011;39307;52.870;13.660;2023-11-21T00:05:52;29.48;;;14.23;;
53411;SDS011;39307;52.870;13.660;2023-11-21T00:08:18;24.20;;;12.60;;
53411;SDS011;39307;52.870;13.660;2023-11-21T00:10:45;19.55;;;11.20;;
53411;SDS011;39307;52.870;13.660;2023-11-21T00:13:11;21.42;;;11.85;;
53411;SDS011;39307;52.870;13.660;2023-11-21T00:15:37;20.38;;;11.82;;
53411;SDS011;39307;52.870;13.660;2023-11-21T00:18:03;17.75;;;11.10;;
53411;SDS011;39307;52.870;13.660;2023-11-21T00:20:29;16.95;;;10.68;;
53411;SDS011;39307;52.870;13.660;2023-11-21T00:22:56;17.83;;;10.45;;
53411;SDS011;39307;52.870;13.660;2023-11-21T00:25:23;14.90;;;9.50;;
53411;SDS011;39307;52.870;13.660;2023-11-21T00:27:49;14.15;;;8.95;;
53411;SDS011;39307;52.870;13.660;2023-11-21T00:30:16;15.48;;;9.93;;
53411;SDS011;39307;52.870;13.660;2023-11-21T00:32:42;13.85;;;8.70;;
53411;SDS011;39307;52.870;13.660;2023-11-21T00:35:08;12.75;;;8.75;;
53411;SDS011;39307;52.870;13.660;2023-11-21T00:37:35;12.05;;;8.35;;
53411;SDS011;39307;52.870;13.660;2023-11-21T00:40:01;12.75;;;7.85;;
53411;SDS011;39307;52.870;13.660;2023-11-21T00:42:27;10.30;;;6.82;;
53411;SDS011;39307;52.870;13.660;2023-11-21T00:44:54;12.07;;;7.70;;
53411;SDS011;39307;52.870;13.660;2023-11-21T00:47:20;12.82;;;7.43;;
53411;SDS011;39307;52.870;13.660;2023-11-21T00:49:46;10.98;;;6.80;;
53411;SDS011;39307;52.870;13.660;2023-11-21T00:52:12;11.05;;;7.35;;
53411;SDS011;39307;52.870;13.660;2023-11-21T00:54:38;11.55;;;6.90;;
53411;SDS011;39307;52.870;13.660;2023-11-21T00:57:05;12.43;;;6.87;;
53411;SDS011;39307;52.870;13.660;2023-11-21T00:59:31;10.05;;;6.90;;
53411;SDS011;39307;52.870;13.660;2023-11-21T01:01:57;10.90;;;6.95;;
53411;SDS011;39307;52.870;13.660;2023-11-21T01:04:23;15.38;;;7.40;;
53411;SDS011;39307;52.870;13.660;2023-11-21T01:06:50;11.30;;;6.80;;
53411;SDS011;39307;52.870;13.660;2023-11-21T01:09:16;12.07;;;6.77;;
53411;SDS011;39307;52.870;13.660;2023-11-21T01:11:42;12.00;;;6.88;;
53411;SDS011;39307;52.870;13.660;2023-11-21T01:14:08;10.70;;;6.97;;
53411;SDS011;39307;52.870;13.660;2023-11-21T01:16:34;10.02;;;6.57;;
53411;SDS011;39307;52.870;13.660;2023-11-21T01:19:01;13.40;;;7.70;;
53411;SDS011;39307;52.870;13.660;2023-11-21T01:21:27;11.05;;;7.18;;
53411;SDS011;39307;52.870;13.660;2023-11-21T01:23:53;10.63;;;6.88;;
53411;SDS011;39307;52.870;13.660;2023-11-21T01:26:19;10.30;;;6.70;;
53411;SDS011;39307;52.870;13.660;2023-11-21T01:28:46;12.73;;;7.05;;
53411;SDS011;39307;52.870;13.660;2023-11-21T01:31:12;12.35;;;7.40;;
53411;SDS011;39307;52.870;13.660;2023-11-21T01:33:38;15.93;;;7.93;;
53411;SDS011;39307;52.870;13.660;2023-11-21T01:36:04;12.57;;;7.50;;
53411;SDS011;39307;52.870;13.660;2023-11-21T01:38:31;11.85;;;7.72;;
53411;SDS011;39307;52.870;13.660;2023-11-21T01:40:57;12.88;;;9.13;;
53411;SDS011;39307;52.870;13.660;2023-11-21T01:43:23;12.80;;;9.10;;
53411;SDS011;39307;52.870;13.660;2023-11-21T01:45:50;13.13;;;8.95;;
53411;SDS011;39307;52.870;13.660;2023-11-21T01:48:16;12.20;;;8.35;;
53411;SDS011;39307;52.870;13.660;2023-11-21T01:50:42;12.30;;;8.52;;
53411;SDS011;39307;52.870;13.660;2023-11-21T01:53:10;13.52;;;8.63;;
53411;SDS011;39307;52.870;13.660;2023-11-21T01:55:38;11.95;;;8.10;;
53411;SDS011;39307;52.870;13.660;2023-11-21T01:58:05;13.95;;;8.60;;
53411;SDS011;39307;52.870;13.660;2023-11-21T02:00:32;15.23;;;8.57;;
53411;SDS011;39307;52.870;13.660;2023-11-21T02:02:58;13.30;;;9.25;;
53411;SDS011;39307;52.870;13.660;2023-11-21T02:05:24;13.68;;;8.90;;
53411;SDS011;39307;52.870;13.660;2023-11-21T02:07:51;14.65;;;8.98;;
53411;SDS011;39307;52.870;13.660;2023-11-21T02:10:17;13.50;;;8.93;;
53411;SDS011;39307;52.870;13.660;2023-11-21T02:12:44;13.07;;;8.50;;
53411;SDS011;39307;52.870;13.660;2023-11-21T02:15:10;14.10;;;9.07;;
53411;SDS011;39307;52.870;13.660;2023-11-21T02:17:44;12.88;;;8.90;;
53411;SDS011;39307;52.870;13.660;2023-11-21T02:20:11;14.52;;;8.48;;
53411;SDS011;39307;52.870;13.660;2023-11-21T02:22:37;14.00;;;9.18;;
53411;SDS011;39307;52.870;13.660;2023-11-21T02:25:05;14.97;;;9.17;;
53411;SDS011;39307;52.870;13.660;2023-11-21T02:27:31;13.48;;;9.00;;
53411;SDS011;39307;52.870;13.660;2023-11-21T02:29:57;15.10;;;8.55;;
53411;SDS011;39307;52.870;13.660;2023-11-21T02:32:23;12.82;;;8.73;;
53411;SDS011;39307;52.870;13.660;2023-11-21T02:34:50;14.82;;;9.40;;
53411;SDS011;39307;52.870;13.660;2023-11-21T02:37:16;15.80;;;9.32;;
53411;SDS011;39307;52.870;13.660;2023-11-21T02:39:42;15.40;;;9.40;;
53411;SDS011;39307;52.870;13.660;2023-11-21T02:42:08;14.82;;;8.75;;
53411;SDS011;39307;52.870;13.660;2023-11-21T02:44:35;15.52;;;8.55;;
53411;SDS011;39307;52.870;13.660;2023-11-21T02:47:01;13.65;;;8.88;;
53411;SDS011;39307;52.870;13.660;2023-11-21T02:49:27;15.57;;;8.95;;
53411;SDS011;39307;52.870;13.660;2023-11-21T02:51:54;14.93;;;8.40;;
53411;SDS011;39307;52.870;13.660;2023-11-21T02:54:20;12.98;;;8.18;;
53411;SDS011;39307;52.870;13.660;2023-11-21T02:56:46;12.90;;;8.25;;
53411;SDS011;39307;52.870;13.660;2023-11-21T02:59:13;14.77;;;8.15;;
53411;SDS011;39307;52.870;13.660;2023-11-21T03:01:39;14.05;;;7.22;;
53411;SDS011;39307;52.870;13.660;2023-11-21T03:04:05;12.15;;;7.25;;
53411;SDS011;39307;52.870;13.660;2023-11-21T03:06:32;13.10;;;7.53;;
53411;SDS011;39307;52.870;13.660;2023-11-21T03:08:58;12.52;;;7.32;;
53411;SDS011;39307;52.870;13.660;2023-11-21T03:11:24;11.50;;;7.28;;
53411;SDS011;39307;52.870;13.660;2023-11-21T03:13:50;10.95;;;6.93;;
53411;SDS011;39307;52.870;13.660;2023-11-21T03:16:18;10.95;;;6.55;;
53411;SDS011;39307;52.870;13.660;2023-11-21T03:18:45;11.90;;;6.72;;
53411;SDS011;39307;52.870;13.660;2023-11-21T03:21:14;10.23;;;6.10;;
53411;SDS011;39307;52.870;13.660;2023-11-21T03:23:40;10.48;;;5.80;;
53411;SDS011;39307;52.870;13.660;2023-11-21T03:26:06;9.50;;;5.70;;
53411;SDS011;39307;52.870;13.660;2023-11-21T03:28:32;8.32;;;5.40;;
53411;SDS011;39307;52.870;13.660;2023-11-21T03:30:58;9.87;;;5.70;;
53411;SDS011;39307;52.870;13.660;2023-11-21T03:33:25;10.13;;;5.63;;
53411;SDS011;39307;52.870;13.660;2023-11-21T03:35:51;11.13;;;6.20;;
53411;SDS011;39307;52.870;13.660;2023-11-21T03:38:17;10.13;;;5.72;;
53411;SDS011;39307;52.870;13.660;2023-11-21T03:40:43;12.77;;;6.50;;
53411;SDS011;39307;52.870;13.660;2023-11-21T03:43:10;9.93;;;5.97;;
53411;SDS011;39307;52.870;13.660;2023-11-21T03:45:36;10.48;;;6.22;;
53411;SDS011;39307;52.870;13.660;2023-11-21T03:48:02;10.73;;;5.90;;
53411;SDS011;39307;52.870;13.660;2023-11-21T03:50:29;10.60;;;5.63;;
53411;SDS011;39307;52.870;13.660;2023-11-21T03:52:55;9.88;;;5.78;;
53411;SDS011;39307;52.870;13.660;2023-11-21T03:55:21;10.40;;;5.78;;
53411;SDS011;39307;52.870;13.660;2023-11-21T03:57:47;9.40;;;5.35;;
53411;SDS011;39307;52.870;13.660;2023-11-21T04:00:14;11.32;;;5.90;;
53411;SDS011;39307;52.870;13.660;2023-11-21T04:02:40;8.82;;;5.63;;
53411;SDS011;39307;52.870;13.660;2023-11-21T04:05:06;8.98;;;5.25;;
53411;SDS011;39307;52.870;13.660;2023-11-21T04:07:33;8.88;;;5.57;;
53411;SDS011;39307;52.870;13.660;2023-11-21T04:09:59;12.05;;;5.43;;
53411;SDS011;39307;52.870;13.660;2023-11-21T04:12:25;9.85;;;5.68;;
53411;SDS011;39307;52.870;13.660;2023-11-21T04:14:52;9.38;;;6.10;;
53411;SDS011;39307;52.870;13.660;2023-11-21T04:17:18;10.48;;;6.03;;
53411;SDS011;39307;52.870;13.660;2023-11-21T04:19:44;9.30;;;5.55;;
53411;SDS011;39307;52.870;13.660;2023-11-21T04:22:11;8.85;;;5.60;;
53411;SDS011;39307;52.870;13.660;2023-11-21T04:24:37;9.37;;;5.77;;
53411;SDS011;39307;52.870;13.660;2023-11-21T04:27:03;10.10;;;6.05;;
53411;SDS011;39307;52.870;13.660;2023-11-21T04:29:30;10.70;;;5.85;;
53411;SDS011;39307;52.870;13.660;2023-11-21T04:31:56;12.10;;;6.22;;
53411;SDS011;39307;52.870;13.660;2023-11-21T04:34:22;13.35;;;6.20;;
53411;SDS011;39307;52.870;13.660;2023-11-21T04:36:49;9.25;;;5.82;;
53411;SDS011;39307;52.870;13.660;2023-11-21T04:39:15;11.68;;;5.78;;
53411;SDS011;39307;52.870;13.660;2023-11-21T04:41:41;9.00;;;5.30;;
53411;SDS011;39307;52.870;13.660;2023-11-21T04:44:08;9.55;;;5.65;;
53411;SDS011;39307;52.870;13.660;2023-11-21T04:46:34;10.45;;;6.05;;
53411;SDS011;39307;52.870;13.660;2023-11-21T04:49:00;10.88;;;5.78;;
53411;SDS011;39307;52.870;13.660;2023-11-21T04:51:26;9.57;;;4.82;;
53411;SDS011;39307;52.870;13.660;2023-11-21T04:53:53;8.90;;;4.40;;
53411;SDS011;39307;52.870;13.660;2023-11-21T04:56:19;8.95;;;4.50;;
53411;SDS011;39307;52.870;13.660;2023-11-21T04:58:45;9.70;;;4.68;;
53411;SDS011;39307;52.870;13.660;2023-11-21T05:01:11;8.63;;;4.50;;
53411;SDS011;39307;52.870;13.660;2023-11-21T05:03:37;9.65;;;4.60;;
53411;SDS011;39307;52.870;13.660;2023-11-21T05:06:04;9.07;;;5.03;;
53411;SDS011;39307;52.870;13.660;2023-11-21T05:08:30;10.70;;;4.93;;
53411;SDS011;39307;52.870;13.660;2023-11-21T05:10:56;8.70;;;4.82;;
53411;SDS011;39307;52.870;13.660;2023-11-21T05:13:23;9.93;;;5.20;;
53411;SDS011;39307;52.870;13.660;2023-11-21T05:15:49;10.00;;;4.68;;
53411;SDS011;39307;52.870;13.660;2023-11-21T05:18:16;9.75;;;4.90;;
53411;SDS011;39307;52.870;13.660;2023-11-21T05:20:42;10.48;;;4.53;;
53411;SDS011;39307;52.870;13.660;2023-11-21T05:23:08;8.30;;;4.15;;
53411;SDS011;39307;52.870;13.660;2023-11-21T05:25:35;8.27;;;4.68;;
53411;SDS011;39307;52.870;13.660;2023-11-21T05:28:01;7.90;;;4.50;;
53411;SDS011;39307;52.870;13.660;2023-11-21T05:30:27;9.15;;;4.65;;
53411;SDS011;39307;52.870;13.660;2023-11-21T05:32:54;13.25;;;4.88;;
53411;SDS011;39307;52.870;13.660;2023-11-21T05:35:20;8.38;;;4.40;;
53411;SDS011;39307;52.870;13.660;2023-11-21T05:37:46;9.40;;;4.78;;
53411;SDS011;39307;52.870;13.660;2023-11-21T05:40:12;8.60;;;4.70;;
53411;SDS011;39307;52.870;13.660;2023-11-21T05:42:39;9.48;;;4.75;;
53411;SDS011;39307;52.870;13.660;2023-11-21T05:45:06;9.27;;;4.53;;
53411;SDS011;39307;52.870;13.660;2023-11-21T05:47:33;8.52;;;4.65;;
53411;SDS011;39307;52.870;13.660;2023-11-21T05:49:59;8.30;;;4.57;;
53411;SDS011;39307;52.870;13.660;2023-11-21T05:52:25;7.35;;;3.58;;
53411;SDS011;39307;52.870;13.660;2023-11-21T05:54:52;8.57;;;3.92;;
53411;SDS011;39307;52.870;13.660;2023-11-21T05:57:18;7.97;;;3.67;;
53411;SDS011;39307;52.870;13.660;2023-11-21T05:59:44;7.30;;;3.30;;
53411;SDS011;39307;52.870;13.660;2023-11-21T06:02:10;6.95;;;3.17;;
53411;SDS011;39307;52.870;13.660;2023-11-21T06:04:36;6.80;;;3.20;;
53411;SDS011;39307;52.870;13.660;2023-11-21T06:07:03;6.45;;;3.00;;
53411;SDS011;39307;52.870;13.660;2023-11-21T06:09:29;7.60;;;3.30;;
53411;SDS011;39307;52.870;13.660;2023-11-21T06:11:55;7.72;;;3.13;;
53411;SDS011;39307;52.870;13.660;2023-11-21T06:14:21;6.13;;;3.07;;
53411;SDS011;39307;52.870;13.660;2023-11-21T06:16:47;9.23;;;3.60;;
53411;SDS011;39307;52.870;13.660;2023-11-21T06:19:14;7.18;;;3.58;;
53411;SDS011;39307;52.870;13.660;2023-11-21T06:21:40;8.50;;;3.70;;
53411;SDS011;39307;52.870;13.660;2023-11-21T06:24:06;8.63;;;5.10;;
53411;SDS011;39307;52.870;13.660;2023-11-21T06:26:32;9.13;;;5.40;;
53411;SDS011;39307;52.870;13.660;2023-11-21T06:28:59;8.57;;;5.00;;
53411;SDS011;39307;52.870;13.660;2023-11-21T06:31:25;9.25;;;5.35;;
53411;SDS011;39307;52.870;13.660;2023-11-21T06:33:51;9.77;;;5.47;;
53411;SDS011;39307;52.870;13.660;2023-11-21T06:36:17;8.10;;;5.15;;
53411;SDS011;39307;52.870;13.660;2023-11-21T06:38:44;9.10;;;5.38;;
53411;SDS011;39307;52.870;13.660;2023-11-21T06:41:10;8.98;;;5.68;;
53411;SDS011;39307;52.870;13.660;2023-11-21T06:43:36;8.65;;;5.40;;
53411;SDS011;39307;52.870;13.660;2023-11-21T06:46:02;8.40;;;5.30;;
53411;SDS011;39307;52.870;13.660;2023-11-21T06:48:28;10.25;;;5.63;;
53411;SDS011;39307;52.870;13.660;2023-11-21T06:50:54;8.55;;;5.63;;
53411;SDS011;39307;52.870;13.660;2023-11-21T06:53:20;9.18;;;5.70;;
53411;SDS011;39307;52.870;13.660;2023-11-21T06:55:46;9.00;;;5.10;;
53411;SDS011;39307;52.870;13.660;2023-11-21T06:58:13;8.70;;;5.07;;
53411;SDS011;39307;52.870;13.660;2023-11-21T07:00:39;9.38;;;5.35;;
53411;SDS011;39307;52.870;13.660;2023-11-21T07:03:05;8.88;;;5.55;;
53411;SDS011;39307;52.870;13.660;2023-11-21T07:05:31;9.25;;;5.93;;
53411;SDS011;39307;52.870;13.660;2023-11-21T07:07:58;9.35;;;5.60;;
53411;SDS011;39307;52.870;13.660;2023-11-21T07:10:24;8.52;;;5.47;;
53411;SDS011;39307;52.870;13.660;2023-11-21T07:12:50;8.50;;;5.70;;
53411;SDS011;39307;52.870;13.660;2023-11-21T07:15:16;8.93;;;5.53;;
53411;SDS011;39307;52.870;13.660;2023-11-21T07:17:43;11.52;;;5.97;;
53411;SDS011;39307;52.870;13.660;2023-11-21T07:20:09;8.50;;;5.13;;
53411;SDS011;39307;52.870;13.660;2023-11-21T07:22:36;9.70;;;5.22;;
53411;SDS011;39307;52.870;13.660;2023-11-21T07:25:02;8.20;;;4.87;;
53411;SDS011;39307;52.870;13.660;2023-11-21T07:27:28;12.98;;;6.18;;
53411;SDS011;39307;52.870;13.660;2023-11-21T07:29:55;10.45;;;6.40;;
53411;SDS011;39307;52.870;13.660;2023-11-21T07:32:21;10.10;;;5.95;;
53411;SDS011;39307;52.870;13.660;2023-11-21T07:34:47;10.35;;;6.45;;
53411;SDS011;39307;52.870;13.660;2023-11-21T07:37:13;11.90;;;7.18;;
53411;SDS011;39307;52.870;13.660;2023-11-21T07:39:39;14.05;;;7.45;;
53411;SDS011;39307;52.870;13.660;2023-11-21T07:42:06;14.43;;;7.30;;
53411;SDS011;39307;52.870;13.660;2023-11-21T07:44:32;14.25;;;7.82;;
53411;SDS011;39307;52.870;13.660;2023-11-21T07:46:58;13.07;;;7.00;;
53411;SDS011;39307;52.870;13.660;2023-11-21T07:49:24;14.45;;;7.43;;
53411;SDS011;39307;52.870;13.660;2023-11-21T07:51:51;20.52;;;10.82;;
53411;SDS011;39307;52.870;13.660;2023-11-21T07:54:17;19.10;;;8.82;;
53411;SDS011;39307;52.870;13.660;2023-11-21T07:56:43;28.20;;;12.63;;
53411;SDS011;39307;52.870;13.660;2023-11-21T07:59:09;32.10;;;13.55;;
53411;SDS011;39307;52.870;13.660;2023-11-21T08:01:35;39.72;;;19.52;;
53411;SDS011;39307;52.870;13.660;2023-11-21T08:04:01;31.30;;;15.35;;
53411;SDS011;39307;52.870;13.660;2023-11-21T08:06:28;36.53;;;15.60;;
53411;SDS011;39307;52.870;13.660;2023-11-21T08:08:54;33.33;;;15.88;;
53411;SDS011;39307;52.870;13.660;2023-11-21T08:11:21;33.90;;;15.60;;
53411;SDS011;39307;52.870;13.660;2023-11-21T08:13:47;32.90;;;15.20;;
53411;SDS011;39307;52.870;13.660;2023-11-21T08:16:13;33.17;;;14.77;;
53411;SDS011;39307;52.870;13.660;2023-11-21T08:18:40;30.30;;;14.88;;
53411;SDS011;39307;52.870;13.660;2023-11-21T08:21:06;26.92;;;13.27;;
53411;SDS011;39307;52.870;13.660;2023-11-21T08:23:33;24.45;;;11.88;;
53411;SDS011;39307;52.870;13.660;2023-11-21T08:25:59;22.80;;;10.77;;
53411;SDS011;39307;52.870;13.660;2023-11-21T08:28:25;21.00;;;10.40;;
53411;SDS011;39307;52.870;13.660;2023-11-21T08:30:52;21.23;;;10.10;;
53411;SDS011;39307;52.870;13.660;2023-11-21T08:33:18;20.70;;;9.50;;
53411;SDS011;39307;52.870;13.660;2023-11-21T08:35:44;23.80;;;10.10;;
53411;SDS011;39307;52.870;13.660;2023-11-21T08:38:10;19.83;;;8.80;;
53411;SDS011;39307;52.870;13.660;2023-11-21T08:40:37;16.38;;;7.80;;
53411;SDS011;39307;52.870;13.660;2023-11-21T08:43:03;18.58;;;8.00;;
53411;SDS011;39307;52.870;13.660;2023-11-21T08:45:30;15.27;;;7.20;;
53411;SDS011;39307;52.870;13.660;2023-11-21T08:47:56;14.75;;;7.28;;
53411;SDS011;39307;52.870;13.660;2023-11-21T08:50:22;11.23;;;5.40;;
53411;SDS011;39307;52.870;13.660;2023-11-21T08:52:49;11.70;;;5.00;;
53411;SDS011;39307;52.870;13.660;2023-11-21T08:55:15;11.43;;;4.95;;
53411;SDS011;39307;52.870;13.660;2023-11-21T08:57:43;11.43;;;4.70;;
53411;SDS011;39307;52.870;13.660;2023-11-21T09:00:10;9.43;;;4.50;;
53411;SDS011;39307;52.870;13.660;2023-11-21T09:02:37;11.40;;;5.00;;
53411;SDS011;39307;52.870;13.660;2023-11-21T09:05:06;9.98;;;5.10;;
53411;SDS011;39307;52.870;13.660;2023-11-21T09:07:33;11.45;;;5.38;;
53411;SDS011;39307;52.870;13.660;2023-11-21T09:09:59;9.87;;;4.97;;
53411;SDS011;39307;52.870;13.660;2023-11-21T09:12:25;10.77;;;5.07;;
53411;SDS011;39307;52.870;13.660;2023-11-21T09:14:52;9.45;;;5.35;;
53411;SDS011;39307;52.870;13.660;2023-11-21T09:17:18;9.25;;;5.30;;
53411;SDS011;39307;52.870;13.660;2023-11-21T09:19:45;12.17;;;5.83;;
53411;SDS011;39307;52.870;13.660;2023-11-21T09:22:11;11.55;;;5.72;;
53411;SDS011;39307;52.870;13.660;2023-11-21T09:24:37;11.93;;;5.75;;
53411;SDS011;39307;52.870;13.660;2023-11-21T09:27:03;12.35;;;5.82;;
53411;SDS011;39307;52.870;13.660;2023-11-21T09:29:29;12.77;;;6.15;;
53411;SDS011;39307;52.870;13.660;2023-11-21T09:31:56;12.75;;;5.88;;
53411;SDS011;39307;52.870;13.660;2023-11-21T09:34:23;11.38;;;5.70;;
53411;SDS011;39307;52.870;13.660;2023-11-21T09:36:49;8.85;;;4.90;;
53411;SDS011;39307;52.870;13.660;2023-11-21T09:39:15;6.35;;;3.58;;
53411;SDS011;39307;52.870;13.660;2023-11-21T09:41:51;6.78;;;3.70;;
53411;SDS011;39307;52.870;13.660;2023-11-21T09:44:18;6.47;;;3.60;;
53411;SDS011;39307;52.870;13.660;2023-11-21T09:46:49;6.55;;;3.53;;
53411;SDS011;39307;52.870;13.660;2023-11-21T09:49:17;6.20;;;3.47;;
53411;SDS011;39307;52.870;13.660;2023-11-21T09:51:44;5.90;;;3.38;;
53411;SDS011;39307;52.870;13.660;2023-11-21T09:54:11;7.05;;;3.60;;
53411;SDS011;39307;52.870;13.660;2023-11-21T09:56:39;6.50;;;3.53;;
53411;SDS011;39307;52.870;13.660;2023-11-21T09:59:05;7.55;;;4.10;;
53411;SDS011;39307;52.870;13.660;2023-11-21T10:01:32;6.30;;;3.65;;
53411;SDS011;39307;52.870;13.660;2023-11-21T10:03:59;6.57;;;3.80;;
53411;SDS011;39307;52.870;13.660;2023-11-21T10:06:26;6.47;;;3.70;;
53411;SDS011;39307;52.870;13.660;2023-11-21T10:08:52;7.45;;;4.05;;
53411;SDS011;39307;52.870;13.660;2023-11-21T10:11:19;5.85;;;3.60;;
53411;SDS011;39307;52.870;13.660;2023-11-21T10:13:46;6.07;;;3.60;;
53411;SDS011;39307;52.870;13.660;2023-11-21T10:16:13;6.20;;;3.40;;
53411;SDS011;39307;52.870;13.660;2023-11-21T10:18:41;6.55;;;3.80;;
53411;SDS011;39307;52.870;13.660;2023-11-21T10:21:08;6.25;;;3.72;;
53411;SDS011;39307;52.870;13.660;2023-11-21T10:23:35;7.87;;;4.00;;
53411;SDS011;39307;52.870;13.660;2023-11-21T10:26:02;7.82;;;4.03;;
53411;SDS011;39307;52.870;13.660;2023-11-21T10:28:29;7.72;;;4.40;;
53411;SDS011;39307;52.870;13.660;2023-11-21T10:30:55;8.73;;;4.57;;
53411;SDS011;39307;52.870;13.660;2023-11-21T10:33:28;7.10;;;4.47;;
53411;SDS011;39307;52.870;13.660;2023-11-21T10:35:55;7.65;;;4.65;;
53411;SDS011;39307;52.870;13.660;2023-11-21T10:38:21;6.80;;;4.00;;
53411;SDS011;39307;52.870;13.660;2023-11-21T10:40:47;7.10;;;4.07;;
53411;SDS011;39307;52.870;13.660;2023-11-21T10:43:14;8.13;;;4.90;;
53411;SDS011;39307;52.870;13.660;2023-11-21T10:45:40;9.93;;;4.90;;
53411;SDS011;39307;52.870;13.660;2023-11-21T10:48:07;9.13;;;5.30;;
53411;SDS011;39307;52.870;13.660;2023-11-21T10:50:35;8.98;;;5.45;;
53411;SDS011;39307;52.870;13.660;2023-11-21T10:53:04;10.68;;;5.60;;
53411;SDS011;39307;52.870;13.660;2023-11-21T10:55:32;9.35;;;5.45;;
53411;SDS011;39307;52.870;13.660;2023-11-21T10:58:02;9.35;;;5.55;;
53411;SDS011;39307;52.870;13.660;2023-11-21T11:00:29;8.48;;;5.22;;
53411;SDS011;39307;52.870;13.660;2023-11-21T11:02:56;10.17;;;5.00;;
53411;SDS011;39307;52.870;13.660;2023-11-21T11:05:23;8.88;;;4.60;;
53411;SDS011;39307;52.870;13.660;2023-11-21T11:07:51;10.97;;;5.73;;
53411;SDS011;39307;52.870;13.660;2023-11-21T11:10:28;8.05;;;4.80;;
53411;SDS011;39307;52.870;13.660;2023-11-21T11:12:55;8.50;;;4.90;;
53411;SDS011;39307;52.870;13.660;2023-11-21T11:15:21;9.95;;;5.40;;
53411;SDS011;39307;52.870;13.660;2023-11-21T11:17:48;9.07;;;5.23;;
53411;SDS011;39307;52.870;13.660;2023-11-21T11:20:14;7.75;;;4.97;;
53411;SDS011;39307;52.870;13.660;2023-11-21T11:28:07;9.57;;;5.80;;
53411;SDS011;39307;52.870;13.660;2023-11-21T11:33:27;10.27;;;5.68;;
53411;SDS011;39307;52.870;13.660;2023-11-21T11:36:23;8.18;;;4.93;;
53411;SDS011;39307;52.870;13.660;2023-11-21T11:38:57;8.00;;;4.30;;
53411;SDS011;39307;52.870;13.660;2023-11-21T11:41:25;9.23;;;5.03;;
53411;SDS011;39307;52.870;13.660;2023-11-21T11:43:52;7.63;;;4.25;;
53411;SDS011;39307;52.870;13.660;2023-11-21T11:46:19;7.78;;;4.40;;
53411;SDS011;39307;52.870;13.660;2023-11-21T11:48:45;8.32;;;4.80;;
53411;SDS011;39307;52.870;13.660;2023-11-21T11:51:11;8.38;;;5.10;;
53411;SDS011;39307;52.870;13.660;2023-11-21T11:53:39;9.35;;;6.07;;
53411;SDS011;39307;52.870;13.660;2023-11-21T11:56:25;7.78;;;4.82;;
53411;SDS011;39307;52.870;13.660;2023-11-21T11:58:56;10.38;;;5.45;;
53411;SDS011;39307;52.870;13.660;2023-11-21T12:01:24;10.80;;;6.00;;
53411;SDS011;39307;52.870;13.660;2023-11-21T12:06:39;9.77;;;6.22;;
53411;SDS011;39307;52.870;13.660;2023-11-21T12:09:18;10.50;;;6.77;;
53411;SDS011;39307;52.870;13.660;2023-11-21T12:11:46;11.10;;;6.53;;
53411;SDS011;39307;52.870;13.660;2023-11-21T12:14:13;12.85;;;8.00;;
53411;SDS011;39307;52.870;13.660;2023-11-21T12:16:40;11.80;;;7.22;;
53411;SDS011;39307;52.870;13.660;2023-11-21T12:19:06;12.75;;;8.07;;
53411;SDS011;39307;52.870;13.660;2023-11-21T12:21:32;14.70;;;9.27;;
53411;SDS011;39307;52.870;13.660;2023-11-21T12:23:59;16.67;;;9.97;;
53411;SDS011;39307;52.870;13.660;2023-11-21T12:26:26;14.98;;;9.73;;
53411;SDS011;39307;52.870;13.660;2023-11-21T12:28:53;16.30;;;10.43;;
53411;SDS011;39307;52.870;13.660;2023-11-21T12:31:19;17.35;;;11.30;;
53411;SDS011;39307;52.870;13.660;2023-11-21T12:33:45;17.35;;;11.35;;
53411;SDS011;39307;52.870;13.660;2023-11-21T12:36:12;17.70;;;11.93;;
53411;SDS011;39307;52.870;13.660;2023-11-21T12:38:39;16.85;;;11.13;;
53411;SDS011;39307;52.870;13.660;2023-11-21T12:41:05;17.70;;;11.60;;
53411;SDS011;39307;52.870;13.660;2023-11-21T12:43:31;20.27;;;13.70;;
53411;SDS011;39307;52.870;13.660;2023-11-21T12:46:05;20.90;;;13.50;;
53411;SDS011;39307;52.870;13.660;2023-11-21T12:48:38;20.73;;;14.40;;
53411;SDS011;39307;52.870;13.660;2023-11-21T12:51:07;21.55;;;14.98;;
53411;SDS011;39307;52.870;13.660;2023-11-21T12:53:34;23.80;;;16.25;;
53411;SDS011;39307;52.870;13.660;2023-11-21T12:55:59;22.98;;;15.43;;
53411;SDS011;39307;52.870;13.660;2023-11-21T12:58:26;21.55;;;14.48;;
53411;SDS011;39307;52.870;13.660;2023-11-21T13:00:52;21.67;;;14.67;;
53411;SDS011;39307;52.870;13.660;2023-11-21T13:03:18;19.88;;;13.98;;
53411;SDS011;39307;52.870;13.660;2023-11-21T13:05:46;22.20;;;13.85;;
53411;SDS011;39307;52.870;13.660;2023-11-21T13:08:13;21.65;;;13.80;;
53411;SDS011;39307;52.870;13.660;2023-11-21T13:10:40;19.50;;;13.75;;
53411;SDS011;39307;52.870;13.660;2023-11-21T13:13:10;21.38;;;14.60;;
53411;SDS011;39307;52.870;13.660;2023-11-21T13:15:40;23.10;;;15.30;;
53411;SDS011;39307;52.870;13.660;2023-11-21T13:18:06;21.65;;;14.50;;
53411;SDS011;39307;52.870;13.660;2023-11-21T13:20:32;21.48;;;14.88;;
53411;SDS011;39307;52.870;13.660;2023-11-21T13:22:59;21.77;;;14.20;;
53411;SDS011;39307;52.870;13.660;2023-11-21T13:25:25;20.20;;;13.77;;
53411;SDS011;39307;52.870;13.660;2023-11-21T13:27:55;19.70;;;13.35;;
53411;SDS011;39307;52.870;13.660;2023-11-21T13:30:25;18.67;;;13.13;;
53411;SDS011;39307;52.870;13.660;2023-11-21T13:32:55;18.35;;;12.77;;
53411;SDS011;39307;52.870;13.660;2023-11-21T13:35:22;18.27;;;12.67;;
53411;SDS011;39307;52.870;13.660;2023-11-21T13:37:51;17.83;;;12.38;;
53411;SDS011;39307;52.870;13.660;2023-11-21T13:40:24;20.25;;;13.23;;
53411;SDS011;39307;52.870;13.660;2023-11-21T13:42:55;17.80;;;12.50;;
53411;SDS011;39307;52.870;13.660;2023-11-21T13:45:22;16.75;;;12.15;;
53411;SDS011;39307;52.870;13.660;2023-11-21T13:47:49;20.38;;;12.65;;
53411;SDS011;39307;52.870;13.660;2023-11-21T13:50:15;20.58;;;13.25;;
53411;SDS011;39307;52.870;13.660;2023-11-21T13:52:43;19.50;;;12.45;;
53411;SDS011;39307;52.870;13.660;2023-11-21T13:55:10;19.67;;;13.40;;
53411;SDS011;39307;52.870;13.660;2023-11-21T13:57:36;23.00;;;13.70;;
53411;SDS011;39307;52.870;13.660;2023-11-21T14:00:03;20.92;;;13.48;;
53411;SDS011;39307;52.870;13.660;2023-11-21T14:02:30;19.48;;;13.98;;
53411;SDS011;39307;52.870;13.660;2023-11-21T14:04:56;21.45;;;13.85;;
53411;SDS011;39307;52.870;13.660;2023-11-21T14:07:23;21.17;;;14.40;;
53411;SDS011;39307;52.870;13.660;2023-11-21T14:09:49;22.02;;;14.68;;
53411;SDS011;39307;52.870;13.660;2023-11-21T14:12:15;21.08;;;14.15;;
53411;SDS011;39307;52.870;13.660;2023-11-21T14:14:42;20.30;;;14.25;;
53411;SDS011;39307;52.870;13.660;2023-11-21T14:17:08;21.17;;;13.30;;
53411;SDS011;39307;52.870;13.660;2023-11-21T14:19:35;19.52;;;12.98;;
53411;SDS011;39307;52.870;13.660;2023-11-21T14:22:01;18.87;;;12.13;;
53411;SDS011;39307;52.870;13.660;2023-11-21T14:24:28;18.63;;;12.07;;
53411;SDS011;39307;52.870;13.660;2023-11-21T14:26:54;18.90;;;11.75;;
53411;SDS011;39307;52.870;13.660;2023-11-21T14:29:21;18.55;;;12.27;;
53411;SDS011;39307;52.870;13.660;2023-11-21T14:31:47;17.60;;;11.77;;